createdAt,value
2023-05-19T00:00:10.640Z,101417.72
2023-05-19T00:02:41.736Z,101478.31
2023-05-19T00:05:10.451Z,101435.22
2023-05-19T00:07:39.473Z,101443.25
2023-05-19T00:10:07.301Z,101446.59
2023-05-19T00:12:35.616Z,101417.13
2023-05-19T00:15:03.015Z,101441.19
2023-05-19T00:17:31.569Z,101452.56
2023-05-19T00:19:58.720Z,101459.28
2023-05-19T00:22:26.041Z,101458.13
2023-05-19T00:24:53.161Z,101455.72
2023-05-19T00:27:20.311Z,101457.31
2023-05-19T00:29:47.433Z,101457.31
2023-05-19T00:32:14.565Z,101462.03
2023-05-19T00:34:41.729Z,101460.00
2023-05-19T00:37:08.954Z,101459.16
2023-05-19T00:39:35.998Z,101467.16
2023-05-19T00:42:03.217Z,101441.13
2023-05-19T00:44:30.288Z,101470.25
2023-05-19T00:46:58.025Z,101425.09
2023-05-19T00:49:25.302Z,101455.34
2023-05-19T00:51:52.315Z,101422.41
2023-05-19T00:54:21.091Z,101464.41
2023-05-19T00:56:49.986Z,101462.22
2023-05-19T00:59:17.440Z,101467.47
2023-05-19T01:01:49.068Z,101467.31
2023-05-19T01:04:20.196Z,101417.25
2023-05-19T01:06:55.200Z,101466.09
2023-05-19T01:09:23.092Z,101465.59
2023-05-19T01:11:50.737Z,101462.63
2023-05-19T01:14:19.585Z,101430.47
2023-05-19T01:16:51.814Z,101453.72
2023-05-19T01:19:25.571Z,101454.34
2023-05-19T01:22:13.295Z,101417.97
2023-05-19T01:25:00.251Z,101452.03
2023-05-19T01:27:46.285Z,101449.31
2023-05-19T01:30:25.444Z,101418.38
2023-05-19T01:32:54.981Z,101451.81
2023-05-19T01:35:26.354Z,101450.13
2023-05-19T01:37:56.956Z,101414.47
2023-05-19T01:40:25.766Z,101452.81
2023-05-19T01:42:57.411Z,101451.81
2023-05-19T01:45:28.077Z,101449.75
2023-05-19T01:47:59.272Z,101435.03
2023-05-19T01:50:27.126Z,101449.94
2023-05-19T01:52:55.483Z,101463.88
2023-05-19T01:55:25.312Z,101455.72
2023-05-19T01:57:52.311Z,101455.28
2023-05-19T02:00:32.201Z,101419.47
2023-05-19T02:03:11.477Z,101458.16
2023-05-19T02:05:46.054Z,101453.72
2023-05-19T02:08:34.650Z,101449.63
2023-05-19T02:11:19.822Z,101472.75
2023-05-19T02:13:50.482Z,101483.19
2023-05-19T02:16:18.080Z,101448.31
2023-05-19T02:18:46.342Z,101449.69
2023-05-19T02:21:13.682Z,101482.06
2023-05-19T02:23:44.073Z,101458.59
2023-05-19T02:26:11.290Z,101483.78
2023-05-19T02:28:38.389Z,101468.91
2023-05-19T02:31:08.986Z,101459.06
2023-05-19T02:33:36.424Z,101465.47
2023-05-19T02:36:03.636Z,101499.09
2023-05-19T02:38:31.097Z,101486.38
2023-05-19T02:40:58.761Z,101467.03
2023-05-19T02:43:25.932Z,101502.09
2023-05-19T02:45:53.073Z,101500.66
2023-05-19T02:48:20.232Z,101484.94
2023-05-19T02:50:47.311Z,101496.25
2023-05-19T02:53:14.422Z,101500.19
2023-05-19T02:55:42.486Z,101489.28
2023-05-19T02:58:09.678Z,101502.25
2023-05-19T03:00:36.906Z,101499.88
2023-05-19T03:03:04.678Z,101488.34
2023-05-19T03:05:31.962Z,101503.56
2023-05-19T03:07:59.089Z,101509.91
2023-05-19T03:10:26.337Z,101515.94
2023-05-19T03:12:53.624Z,101483.63
2023-05-19T03:15:23.220Z,101517.59
2023-05-19T03:17:50.556Z,101508.41
2023-05-19T03:20:18.234Z,101511.53
2023-05-19T03:22:45.233Z,101521.72
2023-05-19T03:25:12.533Z,101513.81
2023-05-19T03:27:40.729Z,101522.69
2023-05-19T03:30:09.143Z,101501.44
2023-05-19T03:32:46.834Z,101513.91
2023-05-19T03:35:14.048Z,101526.75
2023-05-19T03:37:41.092Z,101455.44
2023-05-19T03:40:09.089Z,101479.84
2023-05-19T03:42:37.973Z,101526.50
2023-05-19T03:45:06.014Z,101433.50
2023-05-19T03:47:33.219Z,101528.72
2023-05-19T03:50:10.964Z,101527.59
2023-05-19T03:52:50.633Z,101533.47
2023-05-19T03:55:30.076Z,101515.06
2023-05-19T03:57:57.456Z,101535.03
2023-05-19T04:00:25.115Z,101526.31
2023-05-19T04:02:52.301Z,101493.50
2023-05-19T04:05:19.502Z,101547.75
2023-05-19T04:07:46.971Z,101517.13
2023-05-19T04:10:14.566Z,101540.13
2023-05-19T04:12:41.700Z,101517.56
2023-05-19T04:15:11.608Z,101558.84
2023-05-19T04:17:39.624Z,101544.22
2023-05-19T04:20:07.417Z,101551.88
2023-05-19T04:22:34.543Z,101558.84
2023-05-19T04:25:01.902Z,101542.31
2023-05-19T04:27:30.279Z,101523.63
2023-05-19T04:29:58.241Z,101553.25
2023-05-19T04:32:25.883Z,101559.97
2023-05-19T04:34:54.179Z,101413.88
2023-05-19T04:37:26.271Z,101511.28
2023-05-19T04:39:54.311Z,101557.94
2023-05-19T04:42:26.257Z,101554.72
2023-05-19T04:44:54.698Z,101551.56
2023-05-19T04:47:28.293Z,101555.22
2023-05-19T04:49:55.920Z,101541.25
2023-05-19T04:52:23.893Z,101531.91
2023-05-19T04:54:51.532Z,101542.66
2023-05-19T04:57:18.792Z,101524.75
2023-05-19T04:59:46.489Z,101558.53
2023-05-19T05:02:13.992Z,101512.84
2023-05-19T05:04:42.775Z,101524.44
2023-05-19T05:07:10.937Z,101564.56
2023-05-19T05:09:38.813Z,101570.91
2023-05-19T05:12:08.166Z,101550.28
2023-05-19T05:14:37.271Z,101567.69
2023-05-19T05:17:05.403Z,101543.88
2023-05-19T05:19:33.142Z,101559.44
2023-05-19T05:22:00.695Z,101558.16
2023-05-19T05:24:28.257Z,101532.00
2023-05-19T05:26:59.608Z,101558.59
2023-05-19T05:29:27.122Z,101535.28
2023-05-19T05:31:54.631Z,101574.25
2023-05-19T05:34:23.155Z,101577.72
2023-05-19T05:36:50.341Z,101579.94
2023-05-19T05:39:18.625Z,101576.41
2023-05-19T05:41:45.967Z,101584.84
2023-05-19T05:44:13.346Z,101584.28
2023-05-19T05:46:43.013Z,101584.25
2023-05-19T05:49:12.531Z,101548.75
2023-05-19T05:51:51.117Z,101584.56
2023-05-19T05:54:30.256Z,101571.81
2023-05-19T05:56:57.930Z,101520.44
2023-05-19T05:59:25.214Z,101566.38
2023-05-19T06:01:52.292Z,101557.63
2023-05-19T06:04:21.402Z,101587.84
2023-05-19T06:06:48.644Z,101488.63
2023-05-19T06:09:20.989Z,101556.91
2023-05-19T06:11:48.220Z,101595.03
2023-05-19T06:14:15.452Z,101588.00
2023-05-19T06:17:03.665Z,101567.84
2023-05-19T06:19:31.263Z,101600.53
2023-05-19T06:21:58.693Z,101508.34
2023-05-19T06:24:25.923Z,101596.94
2023-05-19T06:26:53.134Z,101570.59
2023-05-19T06:29:20.310Z,101576.56
2023-05-19T06:31:48.604Z,101524.19
2023-05-19T06:34:17.826Z,101591.81
2023-05-19T06:36:47.087Z,101606.47
2023-05-19T06:39:15.215Z,101606.34
2023-05-19T06:41:42.441Z,101607.16
2023-05-19T06:44:09.694Z,101607.13
2023-05-19T06:46:37.058Z,101613.03
2023-05-19T06:49:04.822Z,101616.56
2023-05-19T06:51:36.958Z,101580.16
2023-05-19T06:54:04.731Z,101616.72
2023-05-19T06:56:34.132Z,101619.59
2023-05-19T06:59:01.230Z,101613.97
2023-05-19T07:01:34.518Z,101611.25
2023-05-19T07:04:02.431Z,101626.63
2023-05-19T07:06:30.274Z,101603.72
2023-05-19T07:08:57.821Z,101628.38
2023-05-19T07:11:26.477Z,101594.06
2023-05-19T07:13:54.173Z,101615.88
2023-05-19T07:16:26.959Z,101629.38
2023-05-19T07:18:55.315Z,101581.28
2023-05-19T07:21:22.466Z,101622.25
2023-05-19T07:23:50.424Z,101615.00
2023-05-19T07:26:17.577Z,101587.00
2023-05-19T07:28:44.787Z,101561.03
2023-05-19T07:31:11.870Z,101596.75
2023-05-19T07:33:38.966Z,101575.97
2023-05-19T07:36:06.160Z,101567.03
2023-05-19T07:38:36.186Z,101584.53
2023-05-19T07:41:03.740Z,101599.59
2023-05-19T07:43:30.909Z,101575.72
2023-05-19T07:45:58.075Z,101598.97
2023-05-19T07:48:26.021Z,101587.16
2023-05-19T07:50:53.558Z,101587.75
2023-05-19T07:53:21.032Z,101594.88
2023-05-19T07:55:48.487Z,101576.28
2023-05-19T07:58:15.966Z,101549.78
2023-05-19T08:00:43.430Z,101560.66
2023-05-19T08:03:10.859Z,101588.88
2023-05-19T08:05:38.191Z,101592.06
2023-05-19T08:08:05.584Z,101575.75
2023-05-19T08:10:32.967Z,101590.25
2023-05-19T08:13:00.450Z,101602.63
2023-05-19T08:15:27.609Z,101603.97
2023-05-19T08:17:54.740Z,101603.47
2023-05-19T08:20:23.178Z,101589.53
2023-05-19T08:22:50.811Z,101598.97
2023-05-19T08:25:19.872Z,101591.63
2023-05-19T08:27:47.057Z,101600.84
2023-05-19T08:30:14.455Z,101595.84
2023-05-19T08:32:41.880Z,101595.84
2023-05-19T08:35:09.504Z,101608.19
2023-05-19T08:37:38.222Z,101604.75
2023-05-19T08:40:06.061Z,101592.41
2023-05-19T08:42:34.062Z,101600.03
2023-05-19T08:45:02.565Z,101582.19
2023-05-19T08:47:29.871Z,101602.16
2023-05-19T08:50:10.956Z,101598.47
2023-05-19T08:53:04.272Z,101603.44
2023-05-19T08:55:36.890Z,101594.44
2023-05-19T08:58:05.050Z,101600.44
2023-05-19T09:00:33.217Z,101591.69
2023-05-19T09:05:34.000Z,101587.13
2023-05-19T09:08:02.932Z,101573.91
2023-05-19T09:10:30.012Z,101582.78
2023-05-19T09:12:57.190Z,101582.25
2023-05-19T09:15:30.856Z,101573.00
2023-05-19T09:18:11.991Z,101570.75
2023-05-19T09:20:43.676Z,101572.25
2023-05-19T09:23:17.528Z,101567.25
2023-05-19T09:25:52.421Z,101563.88
2023-05-19T09:28:33.414Z,101534.41
2023-05-19T09:31:11.345Z,101558.66
2023-05-19T09:33:42.202Z,101572.50
2023-05-19T09:36:13.668Z,101586.72
2023-05-19T09:38:41.481Z,101552.22
2023-05-19T09:41:09.422Z,101575.06
2023-05-19T09:43:36.901Z,101556.69
2023-05-19T09:46:06.341Z,101585.81
2023-05-19T09:48:35.638Z,101568.28
2023-05-19T09:51:05.306Z,101564.56
2023-05-19T09:53:34.990Z,101555.59
2023-05-19T09:56:03.707Z,101569.88
2023-05-19T09:58:37.431Z,101564.94
2023-05-19T10:01:05.888Z,101548.84
2023-05-19T10:03:34.147Z,101532.41
2023-05-19T10:06:01.768Z,101535.41
2023-05-19T10:08:30.855Z,101552.72
2023-05-19T10:10:58.514Z,101521.47
2023-05-19T10:13:26.010Z,101541.78
2023-05-19T10:15:58.610Z,101552.50
2023-05-19T10:18:30.270Z,101534.75
2023-05-19T10:20:58.222Z,101530.03
2023-05-19T10:23:26.223Z,101539.94
2023-05-19T10:25:58.382Z,101537.66
2023-05-19T10:28:31.309Z,101511.72
2023-05-19T10:31:01.892Z,101522.03
2023-05-19T10:33:45.207Z,101546.69
2023-05-19T10:36:47.894Z,101544.34
2023-05-19T10:39:28.483Z,101540.28
2023-05-19T10:42:04.851Z,101537.94
2023-05-19T10:44:45.971Z,101536.69
2023-05-19T10:47:13.457Z,101511.38
2023-05-19T10:49:40.898Z,101524.22
2023-05-19T10:52:26.418Z,101527.25
2023-05-19T10:54:54.957Z,101483.22
2023-05-19T10:57:31.916Z,101528.13
2023-05-19T11:00:11.225Z,101503.63
2023-05-19T11:02:43.420Z,101496.41
2023-05-19T11:05:16.796Z,101514.41
2023-05-19T11:07:47.869Z,101512.50
2023-05-19T11:10:23.786Z,101481.03
2023-05-19T11:12:52.330Z,101514.69
2023-05-19T11:15:26.062Z,101518.72
2023-05-19T11:17:53.953Z,101510.50
2023-05-19T11:20:22.929Z,101514.53
2023-05-19T11:23:20.354Z,101506.97
2023-05-19T11:25:52.276Z,101462.13
2023-05-19T11:28:25.739Z,101480.13
2023-05-19T11:30:55.496Z,101496.53
2023-05-19T11:33:27.371Z,101499.72
2023-05-19T11:35:59.697Z,101497.16
2023-05-19T11:38:30.197Z,101494.44
2023-05-19T11:40:57.831Z,101476.41
2023-05-19T11:43:26.280Z,101458.31
2023-05-19T11:45:55.061Z,101483.22
2023-05-19T11:48:22.811Z,101467.69
2023-05-19T11:50:50.506Z,101468.56
2023-05-19T11:53:17.717Z,101435.25
2023-05-19T11:55:49.023Z,101465.81
2023-05-19T11:58:16.930Z,101449.88
2023-05-19T12:00:47.948Z,101459.16
2023-05-19T12:03:15.623Z,101466.03
2023-05-19T12:05:46.807Z,101468.47
2023-05-19T12:08:17.238Z,101455.38
2023-05-19T12:10:50.001Z,101457.84
2023-05-19T12:13:17.422Z,101458.28
2023-05-19T12:15:44.683Z,101428.41
2023-05-19T12:18:12.305Z,101462.53
2023-05-19T12:20:39.760Z,101454.72
2023-05-19T12:23:07.671Z,101442.94
2023-05-19T12:25:35.187Z,101444.97
2023-05-19T12:28:05.547Z,101446.41
2023-05-19T12:30:33.605Z,101442.59
2023-05-19T12:33:02.808Z,101444.56
2023-05-19T12:35:34.470Z,101411.88
2023-05-19T12:38:07.765Z,101429.94
2023-05-19T12:40:36.322Z,101422.19
2023-05-19T12:43:04.224Z,101420.66
2023-05-19T12:45:35.523Z,101415.72
2023-05-19T12:48:11.469Z,101364.44
2023-05-19T12:50:39.111Z,101410.16
2023-05-19T12:53:16.294Z,101409.91
2023-05-19T12:55:45.234Z,101392.78
2023-05-19T12:58:12.803Z,101405.78
2023-05-19T13:00:45.699Z,101405.84
2023-05-19T13:03:17.909Z,101396.59
2023-05-19T13:05:48.248Z,101393.34
2023-05-19T13:08:21.591Z,101395.63
2023-05-19T13:10:49.817Z,101394.03
2023-05-19T13:13:17.562Z,101310.22
2023-05-19T13:15:48.728Z,101382.22
2023-05-19T13:18:17.288Z,101363.75
2023-05-19T13:20:45.615Z,101380.22
2023-05-19T13:23:13.777Z,101390.28
2023-05-19T13:25:41.554Z,101366.91
2023-05-19T13:28:09.767Z,101400.75
2023-05-19T13:30:39.152Z,101361.94
2023-05-19T13:33:06.741Z,101378.97
2023-05-19T13:35:37.647Z,101389.47
2023-05-19T13:38:07.034Z,101404.47
2023-05-19T13:40:35.225Z,101392.94
2023-05-19T13:43:03.408Z,101379.06
2023-05-19T13:45:30.730Z,101385.53
2023-05-19T13:47:57.753Z,101400.53
2023-05-19T13:50:24.793Z,101368.59
2023-05-19T13:52:52.158Z,101371.03
2023-05-19T13:55:19.535Z,101413.69
2023-05-19T13:57:46.657Z,101353.78
2023-05-19T14:00:14.682Z,101390.50
2023-05-19T14:02:42.493Z,101401.09
2023-05-19T14:05:10.185Z,101396.75
2023-05-19T14:07:37.322Z,101407.75
2023-05-19T14:10:08.087Z,101411.69
2023-05-19T14:12:49.493Z,101401.31
2023-05-19T14:15:23.860Z,101356.78
2023-05-19T14:17:51.070Z,101380.81
2023-05-19T14:20:18.397Z,101397.38
2023-05-19T14:22:45.633Z,101404.16
2023-05-19T14:25:12.709Z,101395.19
2023-05-19T14:27:42.611Z,101373.03
2023-05-19T14:30:10.251Z,101417.72
2023-05-19T14:32:37.468Z,101420.47
2023-05-19T14:35:05.119Z,101422.63
2023-05-19T14:37:32.476Z,101422.78
2023-05-19T14:39:59.927Z,101412.00
2023-05-19T14:42:27.032Z,101441.19
2023-05-19T14:44:54.233Z,101429.94
2023-05-19T14:47:21.553Z,101324.13
2023-05-19T14:49:48.852Z,101449.16
2023-05-19T14:52:16.036Z,101445.38
2023-05-19T14:54:43.144Z,101399.31
2023-05-19T14:57:10.197Z,101458.28
2023-05-19T14:59:38.088Z,101470.16
2023-05-19T15:02:05.786Z,101469.81
2023-05-19T15:04:32.886Z,101479.78
2023-05-19T15:09:30.073Z,101477.31
2023-05-19T15:11:57.380Z,101487.47
2023-05-19T15:14:24.468Z,101475.91
2023-05-19T15:16:51.581Z,101481.78
2023-05-19T15:19:18.765Z,101501.44
2023-05-19T15:21:45.993Z,101460.34
2023-05-19T15:24:13.096Z,101505.75
2023-05-19T15:26:40.286Z,101492.88
2023-05-19T15:29:07.341Z,101497.50
2023-05-19T15:31:35.932Z,101504.97
2023-05-19T15:34:05.166Z,101469.97
2023-05-19T15:36:32.397Z,101452.63
2023-05-19T15:38:59.505Z,101507.16
2023-05-19T15:41:26.889Z,101505.09
2023-05-19T15:43:54.125Z,101439.41
2023-05-19T15:46:21.512Z,101505.25
2023-05-19T15:48:48.653Z,101473.28
2023-05-19T15:51:16.157Z,101508.28
2023-05-19T15:53:43.319Z,101489.88
2023-05-19T15:56:10.780Z,101501.16
2023-05-19T15:58:37.907Z,101498.25
2023-05-19T16:01:05.358Z,101488.09
2023-05-19T16:03:32.881Z,101502.69
2023-05-19T16:06:01.107Z,101504.47
2023-05-19T16:08:28.914Z,101487.47
2023-05-19T16:10:56.510Z,101473.34
2023-05-19T16:13:23.717Z,101443.53
2023-05-19T16:15:50.970Z,101493.97
2023-05-19T16:18:18.264Z,101441.50
2023-05-19T16:20:45.534Z,101487.06
2023-05-19T16:23:12.776Z,101486.03
2023-05-19T16:25:40.007Z,101504.28
2023-05-19T16:28:07.334Z,101478.22
2023-05-19T16:30:34.803Z,101480.84
2023-05-19T16:33:02.243Z,101476.06
2023-05-19T16:35:29.931Z,101429.31
2023-05-19T16:37:57.150Z,101471.13
2023-05-19T16:40:24.343Z,101445.03
2023-05-19T16:42:53.469Z,101453.09
2023-05-19T16:45:20.760Z,101455.06
2023-05-19T16:47:47.941Z,101450.38
2023-05-19T16:50:15.295Z,101408.28
2023-05-19T16:52:42.638Z,101448.03
2023-05-19T16:55:11.091Z,101442.97
2023-05-19T16:57:38.298Z,101455.63
2023-05-19T17:00:06.105Z,101449.91
2023-05-19T17:02:33.357Z,101450.03
2023-05-19T17:05:00.614Z,101461.34
2023-05-19T17:07:29.304Z,101429.38
2023-05-19T17:09:56.684Z,101383.72
2023-05-19T17:12:23.859Z,101415.34
2023-05-19T17:14:52.288Z,101420.94
2023-05-19T17:17:19.676Z,101418.31
2023-05-19T17:19:46.951Z,101365.63
2023-05-19T17:22:14.177Z,101415.63
2023-05-19T17:24:41.474Z,101406.81
2023-05-19T17:27:08.643Z,101448.03
2023-05-19T17:29:36.924Z,101442.75
2023-05-19T17:32:04.551Z,101441.78
2023-05-19T17:34:31.783Z,101445.72
2023-05-19T17:36:59.176Z,101463.84
2023-05-19T17:39:26.396Z,101421.63
2023-05-19T17:41:53.432Z,101401.69
2023-05-19T17:44:20.565Z,101466.22
2023-05-19T17:46:47.874Z,101465.19
2023-05-19T17:49:15.572Z,101470.19
2023-05-19T17:51:42.992Z,101439.72
2023-05-19T17:54:10.236Z,101424.03
2023-05-19T17:56:42.770Z,101492.25
2023-05-19T17:59:10.487Z,101510.16
2023-05-19T18:01:37.773Z,101488.66
2023-05-19T18:04:05.686Z,101514.91
2023-05-19T18:06:33.190Z,101516.47
2023-05-19T18:09:01.431Z,101519.63
2023-05-19T18:11:28.969Z,101486.81
2023-05-19T18:13:56.310Z,101456.63
2023-05-19T18:16:23.439Z,101483.41
2023-05-19T18:18:51.100Z,101514.16
2023-05-19T18:21:18.264Z,101508.06
2023-05-19T18:23:45.932Z,101566.41
2023-05-19T18:26:13.496Z,101550.91
2023-05-19T18:28:41.916Z,101571.66
2023-05-19T18:31:11.078Z,101563.25
2023-05-19T18:33:38.226Z,101450.50
2023-05-19T18:36:05.631Z,101568.75
2023-05-19T18:38:32.652Z,101448.06
2023-05-19T18:41:00.899Z,101473.00
2023-05-19T18:43:30.244Z,101577.38
2023-05-19T18:45:57.474Z,101485.38
2023-05-19T18:48:25.831Z,101584.22
2023-05-19T18:50:53.037Z,101578.44
2023-05-19T18:53:22.484Z,101562.13
2023-05-19T18:55:49.632Z,101594.97
2023-05-19T18:58:18.779Z,101597.63
2023-05-19T19:00:46.108Z,101571.28
2023-05-19T19:03:13.538Z,101569.94
2023-05-19T19:05:40.906Z,101583.88
2023-05-19T19:08:08.066Z,101554.97
2023-05-19T19:10:39.122Z,101612.50
2023-05-19T19:13:06.864Z,101566.75
2023-05-19T19:15:33.957Z,101528.38
2023-05-19T19:18:01.132Z,101601.19
2023-05-19T19:20:28.201Z,101585.91
2023-05-19T19:22:55.276Z,101607.72
2023-05-19T19:25:23.707Z,101628.72
2023-05-19T19:27:51.330Z,101644.69
2023-05-19T19:30:18.480Z,101609.84
2023-05-19T19:32:45.915Z,101675.94
2023-05-19T19:35:13.165Z,101671.44
2023-05-19T19:37:40.222Z,101608.28
2023-05-19T19:40:07.949Z,101668.03
2023-05-19T19:42:35.435Z,101699.00
2023-05-19T19:45:02.567Z,101717.25
2023-05-19T19:47:29.661Z,101710.88
2023-05-19T19:49:56.814Z,101694.88
2023-05-19T19:52:24.042Z,101733.56
2023-05-19T19:54:51.250Z,101695.63
2023-05-19T19:57:18.488Z,101677.69
2023-05-19T19:59:45.708Z,101746.31
2023-05-19T20:02:12.883Z,101740.53
2023-05-19T20:04:40.168Z,101736.66
2023-05-19T20:07:07.381Z,101734.78
2023-05-19T20:09:34.500Z,101713.50
2023-05-19T20:12:01.661Z,101730.13
2023-05-19T20:14:28.849Z,101653.78
2023-05-19T20:16:55.960Z,101717.31
2023-05-19T20:19:28.017Z,101723.38
2023-05-19T20:21:55.481Z,101707.56
2023-05-19T20:24:22.663Z,101691.56
2023-05-19T20:26:49.881Z,101724.22
2023-05-19T20:29:17.099Z,101686.03
2023-05-19T20:31:46.528Z,101688.50
2023-05-19T20:34:13.803Z,101686.34
2023-05-19T20:36:41.178Z,101694.06
2023-05-19T20:39:11.003Z,101695.38
2023-05-19T20:41:38.089Z,101694.88
2023-05-19T20:44:06.119Z,101685.63
2023-05-19T20:46:33.361Z,101679.59
2023-05-19T20:49:00.561Z,101668.31
2023-05-19T20:51:27.731Z,101665.16
2023-05-19T20:53:54.837Z,101667.03
2023-05-19T20:56:22.726Z,101640.16
2023-05-19T20:58:49.955Z,101681.47
2023-05-19T21:01:17.340Z,101657.75
2023-05-19T21:03:44.485Z,101675.19
2023-05-19T21:06:11.730Z,101617.00
2023-05-19T21:08:38.936Z,101680.44
2023-05-19T21:11:06.246Z,101679.31
2023-05-19T21:13:51.768Z,101668.09
2023-05-19T21:16:18.883Z,101663.34
2023-05-19T21:18:46.179Z,101674.94
2023-05-19T21:21:13.270Z,101676.72
2023-05-19T21:23:40.318Z,101611.41
2023-05-19T21:26:07.606Z,101627.19
2023-05-19T21:28:34.668Z,101659.28
2023-05-19T21:31:01.860Z,101654.28
2023-05-19T21:33:29.078Z,101654.28
2023-05-19T21:35:58.182Z,101645.66
2023-05-19T21:38:25.341Z,101664.06
2023-05-19T21:40:53.285Z,101663.50
2023-05-19T21:43:23.393Z,101638.78
2023-05-19T21:45:50.645Z,101660.28
2023-05-19T21:48:18.144Z,101639.50
2023-05-19T21:50:45.363Z,101657.19
2023-05-19T21:53:12.694Z,101644.00
2023-05-19T21:55:39.890Z,101607.59
2023-05-19T21:58:07.082Z,101622.41
2023-05-19T22:00:34.520Z,101660.47
2023-05-19T22:03:01.952Z,101664.88
2023-05-19T22:05:35.099Z,101651.28
2023-05-19T22:08:02.261Z,101628.47
2023-05-19T22:10:29.424Z,101658.69
2023-05-19T22:12:57.600Z,101621.69
2023-05-19T22:15:24.828Z,101620.06
2023-05-19T22:17:52.088Z,101639.56
2023-05-19T22:20:19.371Z,101636.09
2023-05-19T22:22:46.536Z,101639.88
2023-05-19T22:25:13.730Z,101627.63
2023-05-19T22:27:40.861Z,101567.25
2023-05-19T22:30:08.494Z,101585.78
2023-05-19T22:32:36.298Z,101613.97
2023-05-19T22:35:03.683Z,101589.47
2023-05-19T22:37:30.977Z,101574.84
2023-05-19T22:39:58.073Z,101603.13
2023-05-19T22:42:25.357Z,101575.28
2023-05-19T22:44:52.500Z,101599.00
2023-05-19T22:47:19.559Z,101575.88
2023-05-19T22:49:46.898Z,101566.09
2023-05-19T22:52:14.630Z,101523.25
2023-05-19T22:54:42.014Z,101599.56
2023-05-19T22:57:09.628Z,101591.91
2023-05-19T22:59:38.349Z,101568.72
2023-05-19T23:02:06.145Z,101604.16
2023-05-19T23:04:34.535Z,101594.25
2023-05-19T23:07:01.858Z,101585.47
2023-05-19T23:09:28.924Z,101512.66
2023-05-19T23:11:56.122Z,101594.00
2023-05-19T23:14:23.162Z,101597.84
2023-05-19T23:16:50.450Z,101614.97
2023-05-19T23:19:17.685Z,101607.72
2023-05-19T23:21:46.008Z,101596.53
2023-05-19T23:24:13.112Z,101568.56
2023-05-19T23:26:45.986Z,101578.94
2023-05-19T23:29:14.858Z,101464.28
2023-05-19T23:31:42.031Z,101554.19
2023-05-19T23:34:09.192Z,101582.53
2023-05-19T23:36:36.832Z,101564.31
2023-05-19T23:39:03.969Z,101549.47
2023-05-19T23:41:31.549Z,101520.66
2023-05-19T23:43:58.648Z,101538.59
2023-05-19T23:46:26.028Z,101575.00
2023-05-19T23:48:53.071Z,101587.78
2023-05-19T23:51:20.106Z,101508.13
2023-05-19T23:53:47.198Z,101551.13
2023-05-19T23:56:14.409Z,101579.47
2023-05-19T23:58:41.512Z,101526.59
